< < Back
Terminal Aerodrome Forecast


Current Version              Previous Versions:   1  2  3  4  5  6  7  8  9  

Terminal Aerodrome Forecast

525
FTUS42 KFFC 010200 AAC
TAFMCN
TAF AMD
KMCN 010241Z 0103/0124 VRB05KT P6SM VCSH SCT060 BKN150
     FM010400 00000KT P6SM FEW060 SCT150 SCT250
     FM011400 VRB03KT P6SM SCT030 SCT150
     FM011800 VRB05KT P6SM SCT050 SCT150=

Latest METAR

435
SAUS80 KWBC 011100 RRG
MTRMCN
METAR KMCN 011053Z AUTO 00000KT 10SM CLR 22/22 A3011 RMK AO2 SLP189
T02170217 TSNO


USA.gov is the U.S. government's official web portal to all federal, state and local government web resources and services.